Saint Johns, Florida
Current Conditions -  °F | °C
As of 12:53 AM on Sunday 26 Oct 2014 (Local Time) from KNIP Reporting Station
Clear Clear  
Wind Chill: 62°   Ceiling: Unl
Heat Index: 62°   Visibility: 10mi
Dew Point: 53°   Wind: 6mph
Humidity: 72%   Direction: 240°WSW
Pressure: 29.99"   Gusts: NA
Location:  30.0735°N, 81.5808°W
Report Text: KNIP 260453Z 24005KT 10SM CLR 17/12 A2999 RMK AO2 SLP152 T01670117 402670150
Loading
Personal Weather Stations






























Interactive Weather Map
Tropical Storm Tracking
New forecast layout! Learn more

10-Day Weather Forecast

Advertisements
Track Severe Weather on mobile